Time;durP1;ratioP1;P1;durP2;ratioP2;P2;SDS_P1;SDS_P2;PMS_P1;PMS_P2;Temp;Humidity;BMP_temperature;BMP_pressure;BME280_temperature;BME280_humidity;BME280_pressure;Samples;Min_cycle;Max_cycle;Signal;HPM_P1;HPM_P2
2022/06/05 00:01:45;;;;;;;11.28;9.38;;;;;;;17.42;84.75;95786.84;1769819;81;21048;-64
2022/06/05 00:04:20;;;;;;;11.25;8.38;;;;;;;17.32;83.83;95789.98;1769714;81;20970;-64
2022/06/05 00:06:52;;;;;;;11.70;8.83;;;;;;;17.25;84.26;95783.55;1769436;81;20997;-64
2022/06/05 00:09:33;;;;;;;11.68;8.85;;;;;;;17.17;84.21;95785.67;1769400;81;21001;-63
2022/06/05 00:12:19;;;;;;;12.13;9.00;;;;;;;17.15;84.37;95780.86;1769652;81;21081;-63
2022/06/05 00:14:46;;;;;;;14.75;9.63;;;;;;;17.13;84.47;95790.72;1769606;81;21016;-63
2022/06/05 00:17:20;;;;;;;9.50;8.53;;;;;;;17.07;84.29;95790.52;1769213;81;20996;-63
2022/06/05 00:19:52;;;;;;;10.25;9.25;;;;;;;17.03;84.25;95796.92;1769606;81;21048;-63
2022/06/05 00:22:20;;;;;;;8.98;8.05;;;;;;;17.02;84.23;95792.97;1769670;81;21012;-63
2022/06/05 00:24:47;;;;;;;12.65;8.40;;;;;;;16.90;84.15;95790.80;1769488;81;21490;-63
2022/06/05 00:28:06;;;;;;;8.85;7.95;;;;;;;16.86;84.07;95791.41;1769847;81;21036;-64
2022/06/05 00:30:44;;;;;;;9.88;8.85;;;;;;;16.69;84.45;95796.02;1769415;81;21056;-64
2022/06/05 00:33:16;;;;;;;13.60;9.28;;;;;;;16.65;84.56;95797.06;1694117;81;21001;-64
2022/06/05 00:35:54;;;;;;;12.30;9.10;;;;;;;16.60;84.94;95787.05;1769302;81;20981;-64
2022/06/05 00:38:35;;;;;;;13.62;9.85;;;;;;;16.53;85.05;95786.87;1767004;81;21680;-64
2022/06/05 00:41:16;;;;;;;12.60;8.85;;;;;;;16.52;85.27;95795.81;1768558;81;21009;-64
2022/06/05 00:43:43;;;;;;;11.45;9.25;;;;;;;16.53;85.17;95802.42;1768241;81;21565;-63
2022/06/05 00:46:10;;;;;;;10.58;7.92;;;;;;;16.36;85.31;95800.87;1769217;81;21135;-63
2022/06/05 00:48:37;;;;;;;10.98;8.18;;;;;;;16.33;85.49;95795.63;1769538;81;20994;-63
2022/06/05 00:51:04;;;;;;;9.55;8.35;;;;;;;16.36;85.62;95799.06;1769705;81;21001;-63
2022/06/05 00:53:31;;;;;;;9.95;8.18;;;;;;;16.36;85.32;95798.20;1769465;81;21020;-63
2022/06/05 00:55:57;;;;;;;11.90;8.35;;;;;;;16.34;84.94;95800.05;1769307;81;21077;-63
2022/06/05 00:58:24;;;;;;;11.28;7.45;;;;;;;16.34;84.81;95800.05;1769652;81;21425;-63
2022/06/05 01:00:54;;;;;;;9.68;7.60;;;;;;;16.26;84.37;95804.34;1759459;81;21029;-63
2022/06/05 01:03:22;;;;;;;8.83;6.95;;;;;;;16.19;84.59;95810.34;1756185;81;21455;-63
2022/06/05 01:05:49;;;;;;;8.60;7.40;;;;;;;16.19;85.00;95809.48;1756071;82;21085;-64
2022/06/05 01:08:16;;;;;;;10.03;7.55;;;;;;;16.23;84.92;95809.31;1755499;82;21068;-63
2022/06/05 01:11:01;;;;;;;9.48;6.97;;;;;;;16.24;84.59;95810.17;1756362;81;20977;-64
2022/06/05 01:13:55;;;;;;;9.90;7.17;;;;;;;16.12;83.70;95811.95;1756360;81;21017;-64
2022/06/05 01:16:45;;;;;;;8.15;7.28;;;;;;;15.98;83.93;95818.66;1756341;81;21001;-63
2022/06/05 01:19:53;;;;;;;9.78;8.48;;;;;;;15.93;85.03;95817.09;1756474;82;21008;-63
2022/06/05 01:22:52;;;;;;;13.58;7.80;;;;;;;15.94;85.52;95818.36;1755956;81;21085;-63
2022/06/05 01:25:45;;;;;;;14.15;7.58;;;;;;;15.91;85.57;95813.62;1747574;82;21000;-63
2022/06/05 01:28:15;;;;;;;;;;;;;;;15.82;85.56;95808.14;1758581;81;20993;-63
2022/06/05 01:30:59;;;;;;;12.10;7.70;;;;;;;15.75;85.55;95809.31;1756153;82;20107;-63
2022/06/05 01:33:28;;;;;;;9.70;7.33;;;;;;;15.71;85.89;95812.53;1756027;82;21044;-63
2022/06/05 01:36:22;;;;;;;9.68;7.45;;;;;;;15.75;86.16;95811.51;1755848;82;21424;-63
2022/06/05 01:39:01;;;;;;;;;;;;;;;15.78;85.93;95810.06;1758401;82;21495;-63
2022/06/05 01:41:47;;;;;;;9.05;7.45;;;;;;;15.79;85.36;95804.27;1756006;82;20170;-64
2022/06/05 01:44:25;;;;;;;8.85;7.10;;;;;;;15.72;85.37;95804.08;1756054;82;21005;-64
2022/06/05 01:46:52;;;;;;;9.35;6.95;;;;;;;15.67;85.54;95814.84;1756030;81;21443;-64
2022/06/05 01:49:40;;;;;;;9.20;7.55;;;;;;;15.70;85.95;95816.55;1756062;82;21336;-64
2022/06/05 01:52:20;;;;;;;10.63;7.30;;;;;;;15.75;86.15;95803.99;1756236;81;21486;-63
2022/06/05 01:55:07;;;;;;;9.08;7.20;;;;;;;15.77;85.60;95811.44;1756002;82;21523;-64
2022/06/05 01:57:35;;;;;;;8.90;6.87;;;;;;;15.78;85.59;95805.20;1755889;82;21017;-63
2022/06/05 02:00:13;;;;;;;7.78;6.97;;;;;;;15.66;85.79;95815.78;1755879;81;21145;-63
2022/06/05 02:02:48;;;;;;;12.55;7.08;;;;;;;15.59;85.90;95811.59;1753771;82;21101;-63
2022/06/05 02:05:29;;;;;;;13.88;6.92;;;;;;;15.64;86.49;95805.65;1756343;82;21021;-63
2022/06/05 02:08:05;;;;;;;8.25;7.53;;;;;;;15.69;86.36;95810.81;1755954;82;20970;-63
2022/06/05 02:10:53;;;;;;;10.08;7.67;;;;;;;15.73;86.35;95800.52;1755323;82;21017;-63
2022/06/05 02:13:20;;;;;;;9.95;8.00;;;;;;;15.82;86.56;95796.64;1756390;81;21000;-63
2022/06/05 02:15:48;;;;;;;9.58;8.55;;;;;;;15.87;85.70;95801.34;1756176;82;20994;-63
2022/06/05 02:18:15;;;;;;;12.13;8.60;;;;;;;15.86;85.79;95802.27;1755741;82;21534;-64
2022/06/05 02:20:44;;;;;;;13.90;8.60;;;;;;;15.79;85.48;95804.27;1756002;82;21483;-63
2022/06/05 02:23:18;;;;;;;8.45;7.10;;;;;;;15.73;85.44;95805.37;1756189;82;21021;-64
2022/06/05 02:25:46;;;;;;;7.83;6.55;;;;;;;15.72;85.70;95798.32;1755538;82;21013;-64
2022/06/05 02:28:16;;;;;;;11.73;8.00;;;;;;;15.71;85.77;95798.36;1755966;82;21018;-64
2022/06/05 02:31:04;;;;;;;10.78;6.45;;;;;;;15.75;85.70;95796.88;1725250;82;21518;-63
2022/06/05 02:33:57;;;;;;;9.70;6.28;;;;;;;15.80;85.54;95796.72;1754768;82;21048;-63
2022/06/05 02:36:54;;;;;;;13.25;6.78;;;;;;;15.80;85.12;95800.70;1756330;82;20997;-64
2022/06/05 02:39:43;;;;;;;10.35;7.00;;;;;;;15.79;85.29;95800.28;1750577;82;21040;-63
2022/06/05 02:42:39;;;;;;;8.33;6.67;;;;;;;15.83;85.36;95800.59;1756161;82;21041;-63
2022/06/05 02:45:26;;;;;;;12.65;7.58;;;;;;;15.78;85.29;95807.41;1756000;82;21040;-63
2022/06/05 02:48:24;;;;;;;7.50;6.65;;;;;;;15.75;85.45;95805.33;1756140;82;21527;-63
2022/06/05 02:51:01;;;;;;;8.18;6.90;;;;;;;15.84;85.81;95811.63;1755736;82;21017;-63
2022/06/05 02:53:28;;;;;;;8.75;7.53;;;;;;;15.91;85.81;95818.47;1753005;82;20993;-64
2022/06/05 02:55:55;;;;;;;7.40;6.60;;;;;;;16.00;85.70;95807.50;1756200;81;21092;-64
2022/06/05 02:58:22;;;;;;;8.60;6.30;;;;;;;16.00;85.21;95812.83;1756385;81;20997;-63
2022/06/05 03:03:34;;;;;;;12.88;6.45;;;;;;;16.07;84.69;95816.58;1755905;82;21503;-64
2022/06/05 03:06:02;;;;;;;7.17;6.37;;;;;;;16.12;84.72;95811.95;1755997;82;21005;-64
2022/06/05 03:08:29;;;;;;;9.15;6.40;;;;;;;16.18;84.79;95810.42;1756131;81;20998;-63
2022/06/05 03:10:56;;;;;;;6.62;5.90;;;;;;;16.21;84.16;95815.63;1756387;82;21117;-63
2022/06/05 03:13:23;;;;;;;7.22;6.00;;;;;;;16.20;83.82;95816.09;1756217;81;20965;-63
2022/06/05 03:15:51;;;;;;;9.18;6.50;;;;;;;16.19;83.96;95813.00;1756104;82;21065;-63
2022/06/05 03:18:18;;;;;;;7.75;6.75;;;;;;;16.27;84.04;95802.53;1756316;82;21005;-63
2022/06/05 03:20:45;;;;;;;6.80;6.10;;;;;;;16.29;83.76;95801.55;1755933;82;21053;-63
2022/06/05 03:23:12;;;;;;;7.47;6.28;;;;;;;16.25;83.47;95801.72;1756127;82;20981;-63
2022/06/05 03:25:41;;;;;;;8.43;6.50;;;;;;;16.26;83.82;95799.02;1756079;82;21009;-64
2022/06/05 03:28:09;;;;;;;9.50;6.17;;;;;;;16.27;83.65;95798.07;1755941;81;20997;-64
2022/06/05 03:30:38;;;;;;;8.28;6.37;;;;;;;16.26;84.06;95804.80;1756168;82;20986;-63
2022/06/05 03:33:06;;;;;;;8.13;6.62;;;;;;;16.29;84.37;95797.55;1756136;82;20989;-63
2022/06/05 03:35:37;;;;;;;7.72;6.35;;;;;;;16.37;84.47;95795.94;1756384;81;21490;-64
2022/06/05 03:38:04;;;;;;;6.55;5.92;;;;;;;16.40;84.26;95794.04;1756133;82;20989;-64
2022/06/05 03:40:32;;;;;;;6.80;5.85;;;;;;;16.39;83.96;95787.42;1756337;82;20997;-64
2022/06/05 03:42:59;;;;;;;7.33;6.55;;;;;;;16.40;84.07;95790.05;1756142;82;21028;-64
2022/06/05 03:45:26;;;;;;;8.70;7.37;;;;;;;16.49;84.20;95790.61;1756238;81;21506;-64
2022/06/05 03:47:53;;;;;;;10.28;8.25;;;;;;;16.52;84.02;95785.16;1755624;81;21166;-63
2022/06/05 03:50:20;;;;;;;7.58;6.40;;;;;;;16.57;83.74;95787.17;1756145;82;21037;-63
2022/06/05 03:52:47;;;;;;;7.03;5.90;;;;;;;16.53;83.08;95785.11;1756178;82;21467;-63
2022/06/05 03:55:18;;;;;;;9.13;6.95;;;;;;;16.52;83.18;95784.69;1756125;81;21049;-63
2022/06/05 03:57:45;;;;;;;6.10;5.00;;;;;;;16.48;82.32;95783.53;1756281;82;21060;-63
2022/06/05 04:00:15;;;;;;;7.35;5.53;;;;;;;16.41;82.42;95781.59;1755997;82;21060;-63
2022/06/05 04:02:44;;;;;;;6.87;5.10;;;;;;;16.36;82.41;95780.89;1755965;81;20978;-63
2022/06/05 04:05:15;;;;;;;5.83;5.08;;;;;;;16.33;82.59;95776.55;1724623;82;21449;-63
2022/06/05 04:07:42;;;;;;;6.90;5.37;;;;;;;16.23;82.08;95774.70;1756236;82;21052;-63
2022/06/05 04:10:12;;;;;;;5.67;5.17;;;;;;;16.18;82.64;95775.81;1755962;81;20949;-64
2022/06/05 04:12:39;;;;;;;6.35;5.35;;;;;;;16.21;83.04;95773.89;1756207;82;21503;-64
2022/06/05 04:15:07;;;;;;;7.30;5.40;;;;;;;16.29;83.10;95771.41;1756259;81;21479;-64
2022/06/05 04:17:35;;;;;;;6.33;5.20;;;;;;;16.42;83.29;95770.85;1756203;82;21470;-64
2022/06/05 04:20:04;;;;;;;8.18;4.87;;;;;;;16.53;83.51;95778.89;1756321;82;21507;-64
2022/06/05 04:22:35;;;;;;;5.75;4.65;;;;;;;16.66;83.07;95781.03;1756215;81;21012;-64
2022/06/05 04:25:08;;;;;;;5.90;4.67;;;;;;;16.76;83.14;95771.34;1756351;82;20969;-64
2022/06/05 04:27:34;;;;;;;;;;;;;;;16.94;83.38;95778.63;1758846;82;21018;-63
2022/06/05 04:30:01;;;;;;;7.83;5.30;;;;;;;17.08;82.27;95776.71;1755866;82;20114;-64
2022/06/05 04:32:28;;;;;;;9.43;5.20;;;;;;;17.19;82.56;95783.82;1756132;81;21507;-63
2022/06/05 04:34:54;;;;;;;8.63;6.55;;;;;;;17.35;82.12;95777.84;1756290;81;21003;-63
2022/06/05 04:37:21;;;;;;;8.88;6.97;;;;;;;17.46;82.24;95776.91;1755773;81;20994;-63
2022/06/05 04:39:48;;;;;;;9.10;7.28;;;;;;;17.64;82.43;95780.13;1756072;81;21037;-63
2022/06/05 04:42:15;;;;;;;9.75;6.55;;;;;;;17.78;81.64;95785.33;1756191;81;21503;-64
2022/06/05 04:44:41;;;;;;;8.10;6.55;;;;;;;17.85;81.03;95785.02;1756019;81;21001;-64
2022/06/05 04:47:08;;;;;;;9.58;8.23;;;;;;;17.89;80.61;95778.63;1756399;82;20968;-64
2022/06/05 04:49:35;;;;;;;15.20;10.88;;;;;;;17.93;81.43;95779.34;1756089;82;21005;-64
2022/06/05 04:52:03;;;;;;;15.85;12.50;;;;;;;18.00;82.72;95781.28;1755418;82;21496;-64
2022/06/05 04:54:30;;;;;;;16.27;12.98;;;;;;;18.10;82.70;95773.25;1756568;82;21017;-64
2022/06/05 04:56:56;;;;;;;19.77;15.10;;;;;;;18.18;83.00;95770.23;1756180;82;20990;-64
2022/06/05 04:59:23;;;;;;;22.93;15.75;;;;;;;18.22;82.83;95770.03;1756178;82;21440;-64
2022/06/05 05:01:50;;;;;;;18.32;13.15;;;;;;;18.25;82.83;95773.03;1756151;81;21020;-63
2022/06/05 05:04:17;;;;;;;19.77;13.50;;;;;;;18.26;82.90;95774.74;1756248;82;21038;-63
2022/06/05 05:06:45;;;;;;;18.35;13.80;;;;;;;18.28;83.06;95775.55;1756054;82;20982;-63
2022/06/05 05:09:13;;;;;;;19.12;14.50;;;;;;;18.33;83.28;95770.38;1755876;82;21104;-64
2022/06/05 05:11:40;;;;;;;18.70;13.78;;;;;;;18.42;83.29;95770.89;1756061;82;21013;-63
2022/06/05 05:14:08;;;;;;;19.57;13.80;;;;;;;18.49;83.29;95773.67;1755392;82;21022;-64
2022/06/05 05:16:35;;;;;;;21.20;14.93;;;;;;;18.52;82.83;95773.08;1756066;82;21001;-64
2022/06/05 05:19:02;;;;;;;19.92;13.72;;;;;;;18.57;83.29;95781.75;1756039;82;21064;-63
2022/06/05 05:21:29;;;;;;;19.67;13.95;;;;;;;18.66;83.20;95785.77;1755837;82;21025;-64
2022/06/05 05:23:56;;;;;;;20.82;14.13;;;;;;;18.75;83.07;95789.84;1756060;82;21032;-64
2022/06/05 05:26:27;;;;;;;20.75;14.15;;;;;;;18.77;82.83;95792.86;1755606;82;21516;-64
2022/06/05 05:28:56;;;;;;;19.70;14.00;;;;;;;18.84;82.65;95792.55;1755755;82;21033;-64
2022/06/05 05:31:30;;;;;;;18.00;14.18;;;;;;;18.92;82.68;95787.22;1756137;82;20998;-64
2022/06/05 05:33:57;;;;;;;19.15;11.68;;;;;;;19.06;82.66;95791.91;1755231;82;21049;-64
2022/06/05 05:36:25;;;;;;;14.85;11.40;;;;;;;19.18;81.96;95798.00;1756191;82;21025;-64
2022/06/05 05:44:25;;;;;;;15.78;12.05;;;;;;;19.32;81.97;95795.11;1756139;82;21540;-64
2022/06/05 05:46:52;;;;;;;16.60;12.63;;;;;;;19.37;81.35;95794.41;1755920;82;20997;-64
2022/06/05 05:49:19;;;;;;;16.55;12.35;;;;;;;19.49;81.84;95788.92;1755806;82;21026;-64
2022/06/05 05:51:46;;;;;;;15.65;12.37;;;;;;;19.56;81.28;95794.36;1756319;82;21009;-64
2022/06/05 05:54:13;;;;;;;18.10;12.80;;;;;;;19.59;80.79;95792.38;1755965;82;21041;-64
2022/06/05 05:56:40;;;;;;;14.85;12.10;;;;;;;19.63;80.75;95797.98;1756335;82;20970;-64
2022/06/05 05:59:07;;;;;;;15.23;11.57;;;;;;;19.57;80.24;95794.27;1756346;82;21046;-64
2022/06/05 06:01:34;;;;;;;14.10;11.10;;;;;;;19.49;80.14;95786.24;1762034;81;20985;-64
2022/06/05 06:04:01;;;;;;;15.53;11.03;;;;;;;19.48;80.29;95794.75;1769688;81;21037;-64
2022/06/05 06:06:32;;;;;;;15.08;11.53;;;;;;;19.51;80.05;95800.42;1769539;81;21025;-64
2022/06/05 06:08:59;;;;;;;14.38;11.38;;;;;;;19.57;80.34;95804.11;1769285;81;21045;-64
2022/06/05 06:11:26;;;;;;;14.60;11.18;;;;;;;19.63;80.18;95800.66;1769401;81;21005;-64
2022/06/05 06:13:53;;;;;;;14.53;10.48;;;;;;;19.65;79.72;95803.23;1769615;81;20966;-64
2022/06/05 06:16:20;;;;;;;13.05;10.18;;;;;;;19.63;79.79;95800.66;1769369;81;21024;-63
2022/06/05 06:18:47;;;;;;;13.35;9.63;;;;;;;19.66;79.98;95809.86;1769702;81;21018;-63
2022/06/05 06:21:13;;;;;;;11.83;9.53;;;;;;;19.72;79.91;95814.55;1769870;81;20985;-63
2022/06/05 06:23:40;;;;;;;17.17;10.65;;;;;;;19.81;79.61;95821.64;1769607;81;21055;-63
2022/06/05 06:26:08;;;;;;;11.88;9.93;;;;;;;19.91;79.64;95814.00;1769574;81;20999;-64
2022/06/05 06:28:35;;;;;;;11.03;9.58;;;;;;;20.06;79.62;95812.34;1769483;81;21044;-64
2022/06/05 06:31:12;;;;;;;9.55;8.43;;;;;;;20.22;79.15;95815.06;1769309;81;21507;-64
2022/06/05 06:33:39;;;;;;;7.10;6.40;;;;;;;20.26;78.40;95815.27;1769696;81;21486;-64
2022/06/05 06:36:10;;;;;;;6.35;5.30;;;;;;;20.33;77.37;95807.30;1769757;81;21423;-64
2022/06/05 06:38:37;;;;;;;4.10;3.70;;;;;;;20.31;76.52;95814.58;1769607;81;21104;-64
2022/06/05 06:41:08;;;;;;;4.80;4.08;;;;;;;20.16;74.72;95821.62;1769614;81;21060;-64
2022/06/05 06:43:35;;;;;;;4.97;3.98;;;;;;;20.01;74.22;95816.59;1769535;81;21056;-64
2022/06/05 06:46:03;;;;;;;4.67;3.80;;;;;;;20.01;74.97;95825.96;1769322;81;21076;-64
2022/06/05 06:48:31;;;;;;;4.08;3.20;;;;;;;20.14;75.05;95808.77;1769292;81;20989;-64
2022/06/05 06:51:00;;;;;;;3.62;3.33;;;;;;;20.26;74.74;95799.19;1769358;81;20997;-64
2022/06/05 06:53:30;;;;;;;4.03;2.85;;;;;;;20.37;73.83;95804.00;1769490;81;21009;-64
2022/06/05 06:55:57;;;;;;;3.50;3.20;;;;;;;20.35;72.80;95794.69;1769467;81;21024;-63
2022/06/05 06:58:24;;;;;;;3.22;3.00;;;;;;;20.35;72.19;95796.51;1769508;81;20969;-64
2022/06/05 07:00:51;;;;;;;5.55;3.17;;;;;;;20.44;72.75;95800.91;1768710;81;21036;-64
2022/06/05 07:03:18;;;;;;;3.92;3.17;;;;;;;20.60;73.57;95790.72;1756021;82;21045;-64
2022/06/05 07:05:44;;;;;;;3.58;3.27;;;;;;;20.73;72.88;95787.25;1755627;82;21570;-64
2022/06/05 07:08:11;;;;;;;3.98;3.67;;;;;;;20.82;72.37;95790.39;1755877;81;21009;-64
2022/06/05 07:10:38;;;;;;;2.90;2.70;;;;;;;20.90;71.01;95782.77;1756173;81;20994;-64
2022/06/05 07:13:05;;;;;;;3.22;2.77;;;;;;;21.00;71.76;95783.12;1756082;81;21016;-64
2022/06/05 07:15:34;;;;;;;6.15;3.00;;;;;;;21.08;70.93;95775.02;1756101;82;21586;-64
2022/06/05 07:18:06;;;;;;;4.55;3.17;;;;;;;21.15;71.23;95772.86;1755811;82;21059;-64
2022/06/05 07:20:36;;;;;;;3.87;3.15;;;;;;;21.25;70.87;95767.34;1756196;82;21547;-64
2022/06/05 07:23:04;;;;;;;6.10;2.92;;;;;;;21.31;69.93;95775.02;1756205;81;21507;-64
2022/06/05 07:25:33;;;;;;;3.35;2.80;;;;;;;21.37;70.17;95777.85;1756079;82;21005;-64
2022/06/05 07:28:00;;;;;;;3.60;2.80;;;;;;;21.50;69.88;95771.31;1756207;82;20965;-64
2022/06/05 07:30:28;;;;;;;3.90;2.67;;;;;;;21.61;70.26;95762.99;1756339;81;21046;-64
2022/06/05 07:32:55;;;;;;;7.15;2.67;;;;;;;21.72;69.81;95775.80;1756124;81;21491;-64
2022/06/05 07:35:22;;;;;;;3.10;2.80;;;;;;;21.80;68.79;95770.83;1756330;82;21001;-64
2022/06/05 07:37:49;;;;;;;3.25;3.05;;;;;;;21.86;68.13;95774.09;1756096;82;21073;-64
2022/06/05 07:40:17;;;;;;;4.58;2.90;;;;;;;21.95;68.15;95776.23;1755699;81;21053;-64
2022/06/05 07:42:44;;;;;;;3.35;3.05;;;;;;;22.00;67.78;95766.08;1756115;82;21518;-64
2022/06/05 07:45:14;;;;;;;3.47;2.70;;;;;;;22.11;67.72;95773.47;1756238;82;21032;-64
2022/06/05 07:47:44;;;;;;;5.33;3.30;;;;;;;22.25;67.63;95766.32;1756194;81;21056;-64
2022/06/05 07:50:13;;;;;;;4.90;3.22;;;;;;;22.38;67.53;95767.77;1756242;82;21009;-64
2022/06/05 07:55:26;;;;;;;8.58;3.30;;;;;;;22.54;64.72;95762.77;1756088;82;21516;-64
2022/06/05 07:57:53;;;;;;;7.05;3.35;;;;;;;22.63;64.26;95761.70;1756172;81;20965;-64
2022/06/05 08:00:21;;;;;;;3.55;3.25;;;;;;;22.75;64.37;95764.06;1755967;81;21547;-64
2022/06/05 08:02:48;;;;;;;4.50;3.20;;;;;;;22.89;64.87;95758.67;1766095;81;21007;-64
2022/06/05 08:05:15;;;;;;;4.72;3.15;;;;;;;22.95;62.58;95753.36;1769458;81;21020;-64
2022/06/05 08:07:42;;;;;;;3.75;2.80;;;;;;;23.08;63.19;95750.31;1769614;81;21029;-64
2022/06/05 08:10:09;;;;;;;3.60;3.30;;;;;;;23.19;63.64;95755.47;1769522;81;21060;-64
2022/06/05 08:12:37;;;;;;;3.37;2.95;;;;;;;23.27;62.16;95758.02;1769682;81;20973;-64
2022/06/05 08:15:09;;;;;;;3.65;2.95;;;;;;;23.41;61.57;95748.15;1769215;81;20977;-64
2022/06/05 08:17:37;;;;;;;6.53;3.55;;;;;;;23.59;61.44;95752.31;1769869;81;21439;-64
2022/06/05 08:20:07;;;;;;;3.50;3.20;;;;;;;23.66;61.79;95754.98;1769665;81;21514;-64
2022/06/05 08:22:34;;;;;;;3.40;3.10;;;;;;;23.91;60.96;95758.23;1769362;81;21029;-64
2022/06/05 08:25:01;;;;;;;3.92;3.35;;;;;;;24.17;61.43;95764.50;1769244;81;21547;-63
2022/06/05 08:27:29;;;;;;;3.25;2.60;;;;;;;24.46;60.36;95767.00;1769678;81;21005;-64
2022/06/05 08:29:57;;;;;;;2.72;2.52;;;;;;;24.34;56.45;95767.38;1769239;81;21025;-64
2022/06/05 08:32:27;;;;;;;4.10;2.77;;;;;;;24.52;56.52;95765.23;1769652;81;21012;-64
2022/06/05 08:34:55;;;;;;;3.65;2.87;;;;;;;24.79;55.12;95762.86;1769665;81;21071;-64
2022/06/05 08:43:13;;;;;;;5.05;2.17;;;;;;;24.65;55.94;95780.55;1769452;81;21005;-64
2022/06/05 08:45:48;;;;;;;3.37;1.90;;;;;;;24.19;52.89;95785.48;1769859;81;21021;-64
2022/06/05 08:48:32;;;;;;;3.35;2.40;;;;;;;23.72;54.71;95773.44;1737370;81;21451;-63
2022/06/05 08:51:19;;;;;;;2.80;2.55;;;;;;;23.78;56.18;95778.03;1769478;81;20977;-63
2022/06/05 08:53:57;;;;;;;3.42;2.52;;;;;;;24.11;56.24;95778.39;1769334;81;21052;-64
2022/06/05 08:56:29;;;;;;;2.60;2.40;;;;;;;24.36;56.20;95777.54;1768511;81;20981;-64
2022/06/05 08:59:20;;;;;;;3.92;2.98;;;;;;;24.57;56.12;95777.91;1757839;81;21013;-64
2022/06/05 09:02:00;;;;;;;4.47;2.80;;;;;;;24.58;56.54;95775.58;1766871;81;21038;-64
2022/06/05 09:04:42;;;;;;;3.27;2.58;;;;;;;24.63;55.92;95784.70;1755657;82;21065;-64
2022/06/05 09:07:14;;;;;;;6.15;2.77;;;;;;;24.79;56.36;95777.20;1751273;82;21053;-64
2022/06/05 09:09:51;;;;;;;2.70;2.50;;;;;;;24.99;56.31;95771.71;1755868;81;21010;-64
2022/06/05 09:12:29;;;;;;;3.72;2.90;;;;;;;24.95;56.35;95773.42;1756099;81;21459;-64
2022/06/05 09:15:01;;;;;;;3.30;2.70;;;;;;;24.85;56.34;95785.37;1756202;81;21013;-64
2022/06/05 09:17:28;;;;;;;4.25;2.75;;;;;;;24.76;56.77;95791.42;1754303;82;20978;-64
2022/06/05 09:19:58;;;;;;;6.45;2.90;;;;;;;24.65;56.48;95793.55;1755789;82;21029;-64
2022/06/05 09:22:50;;;;;;;3.37;3.05;;;;;;;24.34;57.36;95794.80;1756204;81;20993;-64
2022/06/05 09:25:31;;;;;;;5.00;2.87;;;;;;;24.22;58.10;95804.62;1754123;82;21060;-63
2022/06/05 09:28:15;;;;;;;12.18;3.22;;;;;;;24.47;57.85;95795.72;1756232;81;21001;-64
2022/06/05 09:31:14;;;;;;;3.80;3.05;;;;;;;24.41;57.58;95793.41;1754285;82;21026;-63
2022/06/05 09:33:43;;;;;;;4.95;3.05;;;;;;;24.58;57.68;95790.41;1756092;82;21503;-64
2022/06/05 09:36:14;;;;;;;5.58;2.77;;;;;;;24.55;57.94;95782.55;1755808;82;21018;-64
2022/06/05 09:38:49;;;;;;;7.10;3.25;;;;;;;24.88;59.19;95783.80;1756182;82;21440;-63
2022/06/05 09:41:37;;;;;;;3.27;2.98;;;;;;;25.03;57.67;95777.77;1755664;81;21005;-64
2022/06/05 09:44:48;;;;;;;3.80;2.92;;;;;;;24.79;57.36;95793.89;1756068;82;21021;-64
2022/06/05 09:47:29;;;;;;;6.00;3.17;;;;;;;24.61;57.34;95790.19;1755433;82;21069;-64
2022/06/05 09:49:59;;;;;;;4.35;3.08;;;;;;;24.76;57.50;95789.58;1756172;82;20989;-64
2022/06/05 09:52:30;;;;;;;3.50;3.20;;;;;;;24.64;56.54;95790.45;1755787;82;21025;-64
2022/06/05 09:55:20;;;;;;;3.55;3.25;;;;;;;24.44;57.01;95793.18;1756068;82;21024;-64
2022/06/05 10:00:50;;;;;;;4.95;3.15;;;;;;;24.03;57.75;95798.28;1756183;81;21017;-64
2022/06/05 10:03:29;;;;;;;3.98;3.40;;;;;;;23.64;58.19;95803.19;1765402;81;21024;-64
2022/06/05 10:06:17;;;;;;;7.03;3.72;;;;;;;23.33;58.99;95814.17;1769295;81;21092;-64
2022/06/05 10:08:55;;;;;;;4.15;3.75;;;;;;;23.07;59.98;95812.30;1760170;81;21036;-64
2022/06/05 10:11:31;;;;;;;6.03;3.52;;;;;;;22.85;60.71;95820.84;1769131;81;21129;-64
2022/06/05 10:14:09;;;;;;;4.62;3.30;;;;;;;22.60;61.30;95806.28;1768398;81;21012;-64
2022/06/05 10:16:47;;;;;;;3.60;3.30;;;;;;;22.93;62.51;95806.44;1768476;81;21495;-64
2022/06/05 10:19:31;;;;;;;6.30;3.30;;;;;;;23.40;61.17;95806.53;1769497;81;20973;-64
2022/06/05 10:22:21;;;;;;;3.40;3.10;;;;;;;23.84;58.94;95804.08;1769413;81;21543;-64
2022/06/05 10:24:56;;;;;;;3.12;2.72;;;;;;;24.08;57.73;95804.22;1769655;81;20997;-64
2022/06/05 10:27:23;;;;;;;3.45;3.15;;;;;;;24.55;57.19;95804.13;1768843;81;21033;-64
2022/06/05 10:30:00;;;;;;;2.90;2.70;;;;;;;24.52;54.74;95807.05;1769444;81;20988;-64
2022/06/05 10:32:40;;;;;;;3.65;2.50;;;;;;;24.28;55.79;95810.93;1769531;81;21498;-64
2022/06/05 10:35:26;;;;;;;2.77;2.55;;;;;;;24.09;56.32;95808.66;1769197;81;21005;-64
2022/06/05 10:38:21;;;;;;;2.90;2.65;;;;;;;24.13;56.40;95812.85;1769678;81;21056;-63
2022/06/05 10:40:53;;;;;;;5.03;2.58;;;;;;;24.18;55.73;95816.59;1745207;81;21486;-63
2022/06/05 10:43:31;;;;;;;2.60;2.40;;;;;;;24.30;54.83;95810.84;1769406;81;20973;-63
2022/06/05 10:46:24;;;;;;;6.08;2.45;;;;;;;24.37;57.77;95808.09;1769737;81;20988;-64
2022/06/05 10:48:55;;;;;;;;;;;;;;;24.83;54.45;95808.91;1771974;81;21034;-65
2022/06/05 10:51:51;;;;;;;2.62;2.27;;;;;;;24.79;53.58;95809.59;1769516;81;20154;-65
2022/06/05 10:54:32;;;;;;;2.37;2.15;;;;;;;25.09;53.84;95810.20;1769260;81;21097;-65
2022/06/05 10:57:14;;;;;;;2.20;1.80;;;;;;;25.26;50.79;95789.11;1769408;81;20989;-65
2022/06/05 11:00:08;;;;;;;2.45;2.25;;;;;;;25.34;49.63;95795.30;1769624;81;21059;-65
2022/06/05 11:03:11;;;;;;;2.72;1.90;;;;;;;25.48;50.72;95792.94;1765594;81;21021;-65
2022/06/05 11:06:27;;;;;;;2.62;2.42;;;;;;;25.60;50.69;95797.42;1756500;82;20994;-65
2022/06/05 11:09:20;;;;;;;2.40;2.30;;;;;;;25.33;50.37;95788.18;1755670;82;21013;-66
2022/06/05 11:15:44;;;;;;;3.47;2.30;;;;;;;25.87;50.77;95785.02;1755968;82;21106;-65
2022/06/05 11:18:16;;;;;;;3.87;2.40;;;;;;;26.12;49.93;95783.13;1755798;82;21076;-65
2022/06/05 11:20:51;;;;;;;2.58;2.37;;;;;;;26.14;47.95;95774.42;1756363;81;21013;-65
2022/06/05 11:23:23;;;;;;;5.28;2.40;;;;;;;26.19;49.05;95776.77;1754914;82;21515;-65
2022/06/05 11:26:21;;;;;;;3.27;2.25;;;;;;;26.26;49.04;95776.67;1756181;82;21049;-65
2022/06/05 11:29:25;;;;;;;2.25;2.05;;;;;;;26.36;49.21;95767.31;1756343;82;21053;-65
2022/06/05 11:32:00;;;;;;;2.42;2.22;;;;;;;26.47;48.15;95769.55;1755885;82;21099;-65
2022/06/05 11:35:13;;;;;;;2.37;2.15;;;;;;;26.61;47.84;95756.33;1755096;82;21026;-66
2022/06/05 11:38:21;;;;;;;2.10;1.90;;;;;;;26.70;46.46;95755.56;1755998;81;21121;-65
2022/06/05 11:41:14;;;;;;;2.85;2.00;;;;;;;26.61;45.66;95752.27;1688083;85;21637;-66
2022/06/05 11:43:41;;;;;;;;;;;;;;;26.65;45.75;95751.52;1697580;85;21042;-65
2022/06/05 11:46:35;;;;;;;5.12;1.92;;;;;;;26.74;45.25;95748.08;1712137;83;20113;-65
2022/06/05 11:49:33;;;;;;;4.53;2.12;;;;;;;26.67;44.38;95740.08;1756665;82;20997;-65
2022/06/05 11:52:14;;;;;;;2.22;1.90;;;;;;;26.83;44.58;95736.48;1756412;81;21013;-65
2022/06/05 11:54:49;;;;;;;2.37;2.27;;;;;;;26.97;45.68;95736.23;1756847;82;20993;-65
2022/06/05 11:57:30;;;;;;;2.92;2.30;;;;;;;27.14;45.16;95733.97;1755998;82;21037;-65
2022/06/05 12:00:17;;;;;;;3.62;2.08;;;;;;;27.37;45.57;95737.55;1720260;82;21025;-65
2022/06/05 12:03:25;;;;;;;2.00;1.90;;;;;;;27.50;42.98;95737.38;1756891;81;21044;-65
2022/06/05 12:06:15;;;;;;;2.22;2.10;;;;;;;27.76;43.49;95733.80;1756306;82;21033;-65
2022/06/05 12:08:50;;;;;;;3.15;2.25;;;;;;;28.16;42.21;95739.92;1756677;81;21068;-65
2022/06/05 12:11:24;;;;;;;2.40;2.17;;;;;;;28.53;41.50;95734.03;1756658;82;21004;-65
2022/06/05 12:14:18;;;;;;;6.87;2.50;;;;;;;27.89;40.11;95738.57;1743792;82;21562;-65
2022/06/05 12:17:05;;;;;;;2.95;2.20;;;;;;;27.29;42.73;95736.83;1756769;82;21005;-66
2022/06/05 12:19:49;;;;;;;3.22;2.15;;;;;;;27.58;43.28;95732.16;1756425;82;21048;-65
2022/06/05 12:22:26;;;;;;;2.33;2.12;;;;;;;27.76;42.65;95734.66;1756462;82;21097;-66
2022/06/05 12:25:01;;;;;;;2.52;2.20;;;;;;;27.39;43.36;95731.48;1756395;82;21082;-65
2022/06/05 12:27:42;;;;;;;3.70;2.00;;;;;;;27.58;42.46;95724.03;1756006;82;21025;-65
2022/06/05 12:30:17;;;;;;;2.27;2.17;;;;;;;28.08;42.50;95727.02;1756836;81;21021;-66